sensor_id;sensor_type;location;lat;lon;timestamp;temperature;humidity
46562;DHT22;32289;42.688;23.330;2023-02-28T00:01:50;6.50;99.90
46562;DHT22;32289;42.688;23.330;2023-02-28T00:05:31;6.50;99.90
46562;DHT22;32289;42.688;23.330;2023-02-28T00:09:12;6.50;99.90
46562;DHT22;32289;42.688;23.330;2023-02-28T00:12:54;6.60;99.90
46562;DHT22;32289;42.688;23.330;2023-02-28T00:16:37;6.40;99.90
46562;DHT22;32289;42.688;23.330;2023-02-28T00:20:18;6.30;99.90
46562;DHT22;32289;42.688;23.330;2023-02-28T00:23:59;6.50;99.90
46562;DHT22;32289;42.688;23.330;2023-02-28T00:27:40;6.50;99.90
46562;DHT22;32289;42.688;23.330;2023-02-28T00:31:21;6.70;99.90
46562;DHT22;32289;42.688;23.330;2023-02-28T00:35:02;6.50;99.90
46562;DHT22;32289;42.688;23.330;2023-02-28T00:38:43;6.40;99.90
46562;DHT22;32289;42.688;23.330;2023-02-28T00:42:24;6.40;99.90
46562;DHT22;32289;42.688;23.330;2023-02-28T00:46:05;6.40;99.90
46562;DHT22;32289;42.688;23.330;2023-02-28T00:49:46;6.40;99.90
46562;DHT22;32289;42.688;23.330;2023-02-28T00:53:27;6.30;99.90
46562;DHT22;32289;42.688;23.330;2023-02-28T00:57:08;6.10;99.90
46562;DHT22;32289;42.688;23.330;2023-02-28T01:00:50;6.00;99.90
46562;DHT22;32289;42.688;23.330;2023-02-28T01:04:30;6.00;99.90
46562;DHT22;32289;42.688;23.330;2023-02-28T01:08:12;5.90;99.90
46562;DHT22;32289;42.688;23.330;2023-02-28T01:11:54;6.00;99.90
46562;DHT22;32289;42.688;23.330;2023-02-28T01:15:34;6.00;99.90
46562;DHT22;32289;42.688;23.330;2023-02-28T01:19:15;6.00;99.90
46562;DHT22;32289;42.688;23.330;2023-02-28T01:22:56;6.10;99.90
46562;DHT22;32289;42.688;23.330;2023-02-28T01:26:37;5.90;99.90
46562;DHT22;32289;42.688;23.330;2023-02-28T01:30:17;5.90;99.90
46562;DHT22;32289;42.688;23.330;2023-02-28T01:33:59;5.90;99.90
46562;DHT22;32289;42.688;23.330;2023-02-28T01:37:39;5.70;99.90
46562;DHT22;32289;42.688;23.330;2023-02-28T01:41:29;5.70;99.90
46562;DHT22;32289;42.688;23.330;2023-02-28T01:45:25;5.80;99.90
46562;DHT22;32289;42.688;23.330;2023-02-28T01:49:13;5.70;99.90
46562;DHT22;32289;42.688;23.330;2023-02-28T01:53:00;5.80;99.90
46562;DHT22;32289;42.688;23.330;2023-02-28T01:57:06;5.80;99.90
46562;DHT22;32289;42.688;23.330;2023-02-28T02:00:49;5.80;99.90
46562;DHT22;32289;42.688;23.330;2023-02-28T02:04:38;5.80;99.90
46562;DHT22;32289;42.688;23.330;2023-02-28T02:08:23;5.90;99.90
46562;DHT22;32289;42.688;23.330;2023-02-28T02:12:30;5.80;99.90
46562;DHT22;32289;42.688;23.330;2023-02-28T02:28:08;5.90;99.90
46562;DHT22;32289;42.688;23.330;2023-02-28T02:36:00;5.90;99.90
46562;DHT22;32289;42.688;23.330;2023-02-28T02:39:51;5.90;99.90
46562;DHT22;32289;42.688;23.330;2023-02-28T02:43:44;5.90;99.90
46562;DHT22;32289;42.688;23.330;2023-02-28T02:47:29;5.90;99.90
46562;DHT22;32289;42.688;23.330;2023-02-28T02:51:14;5.90;99.90
46562;DHT22;32289;42.688;23.330;2023-02-28T02:54:57;6.00;99.90
46562;DHT22;32289;42.688;23.330;2023-02-28T02:58:41;6.00;99.90
46562;DHT22;32289;42.688;23.330;2023-02-28T03:02:23;5.90;99.90
46562;DHT22;32289;42.688;23.330;2023-02-28T03:06:06;6.00;99.90
46562;DHT22;32289;42.688;23.330;2023-02-28T03:09:57;5.80;99.90
46562;DHT22;32289;42.688;23.330;2023-02-28T03:13:48;5.60;99.90
46562;DHT22;32289;42.688;23.330;2023-02-28T03:38:03;5.60;99.90
46562;DHT22;32289;42.688;23.330;2023-02-28T03:41:47;5.50;99.90
46562;DHT22;32289;42.688;23.330;2023-02-28T03:45:32;5.50;99.90
46562;DHT22;32289;42.688;23.330;2023-02-28T03:49:46;5.50;99.90
46562;DHT22;32289;42.688;23.330;2023-02-28T03:53:34;5.70;99.90
46562;DHT22;32289;42.688;23.330;2023-02-28T04:01:38;5.60;99.90
46562;DHT22;32289;42.688;23.330;2023-02-28T04:05:22;5.60;99.90
46562;DHT22;32289;42.688;23.330;2023-02-28T04:09:05;5.80;99.90
46562;DHT22;32289;42.688;23.330;2023-02-28T04:12:45;5.60;99.90
46562;DHT22;32289;42.688;23.330;2023-02-28T04:16:26;5.70;99.90
46562;DHT22;32289;42.688;23.330;2023-02-28T04:20:08;5.70;99.90
46562;DHT22;32289;42.688;23.330;2023-02-28T04:23:52;5.90;99.90
46562;DHT22;32289;42.688;23.330;2023-02-28T04:27:33;5.80;99.90
46562;DHT22;32289;42.688;23.330;2023-02-28T04:31:13;5.70;99.90
46562;DHT22;32289;42.688;23.330;2023-02-28T04:34:54;5.70;99.90
46562;DHT22;32289;42.688;23.330;2023-02-28T04:38:38;5.60;99.90
46562;DHT22;32289;42.688;23.330;2023-02-28T04:42:19;5.50;99.90
46562;DHT22;32289;42.688;23.330;2023-02-28T04:46:02;5.40;99.90
46562;DHT22;32289;42.688;23.330;2023-02-28T04:49:43;5.50;99.90
46562;DHT22;32289;42.688;23.330;2023-02-28T04:53:23;5.50;99.90
46562;DHT22;32289;42.688;23.330;2023-02-28T04:57:04;5.10;99.90
46562;DHT22;32289;42.688;23.330;2023-02-28T05:00:45;5.20;99.90
46562;DHT22;32289;42.688;23.330;2023-02-28T05:04:27;5.20;99.90
46562;DHT22;32289;42.688;23.330;2023-02-28T05:08:07;5.10;99.90
46562;DHT22;32289;42.688;23.330;2023-02-28T05:11:50;5.20;99.90
46562;DHT22;32289;42.688;23.330;2023-02-28T05:15:30;5.10;99.90
46562;DHT22;32289;42.688;23.330;2023-02-28T05:19:11;5.10;99.90
46562;DHT22;32289;42.688;23.330;2023-02-28T05:22:51;5.30;99.90
46562;DHT22;32289;42.688;23.330;2023-02-28T05:26:38;5.30;99.90
46562;DHT22;32289;42.688;23.330;2023-02-28T05:30:19;5.20;99.90
46562;DHT22;32289;42.688;23.330;2023-02-28T05:33:59;5.00;99.90
46562;DHT22;32289;42.688;23.330;2023-02-28T05:37:40;5.30;99.90
46562;DHT22;32289;42.688;23.330;2023-02-28T05:41:22;5.40;99.90
46562;DHT22;32289;42.688;23.330;2023-02-28T05:45:08;5.40;99.90
46562;DHT22;32289;42.688;23.330;2023-02-28T05:48:49;5.30;99.90
46562;DHT22;32289;42.688;23.330;2023-02-28T05:52:30;5.40;99.90
46562;DHT22;32289;42.688;23.330;2023-02-28T05:56:11;5.40;99.90
46562;DHT22;32289;42.688;23.330;2023-02-28T05:59:51;5.30;99.90
46562;DHT22;32289;42.688;23.330;2023-02-28T06:03:32;5.70;99.90
46562;DHT22;32289;42.688;23.330;2023-02-28T06:07:13;6.00;99.90
46562;DHT22;32289;42.688;23.330;2023-02-28T06:10:54;5.90;99.90
46562;DHT22;32289;42.688;23.330;2023-02-28T06:14:34;5.80;99.90
46562;DHT22;32289;42.688;23.330;2023-02-28T06:18:15;5.70;99.90
46562;DHT22;32289;42.688;23.330;2023-02-28T06:21:56;5.90;99.90
46562;DHT22;32289;42.688;23.330;2023-02-28T06:25:37;5.90;99.90
46562;DHT22;32289;42.688;23.330;2023-02-28T06:29:18;6.10;99.90
46562;DHT22;32289;42.688;23.330;2023-02-28T06:32:58;6.10;99.90
46562;DHT22;32289;42.688;23.330;2023-02-28T06:36:40;6.00;99.90
46562;DHT22;32289;42.688;23.330;2023-02-28T06:40:21;6.10;99.90
46562;DHT22;32289;42.688;23.330;2023-02-28T06:44:04;6.00;99.90
46562;DHT22;32289;42.688;23.330;2023-02-28T06:47:46;5.90;99.90
46562;DHT22;32289;42.688;23.330;2023-02-28T06:51:32;6.00;99.90
46562;DHT22;32289;42.688;23.330;2023-02-28T06:55:13;6.10;99.90
46562;DHT22;32289;42.688;23.330;2023-02-28T06:58:53;6.10;99.90
46562;DHT22;32289;42.688;23.330;2023-02-28T07:02:35;6.10;99.90
46562;DHT22;32289;42.688;23.330;2023-02-28T07:06:16;6.10;99.90
46562;DHT22;32289;42.688;23.330;2023-02-28T07:09:58;6.50;99.90
46562;DHT22;32289;42.688;23.330;2023-02-28T07:13:39;6.40;99.90
46562;DHT22;32289;42.688;23.330;2023-02-28T07:17:20;6.20;99.90
46562;DHT22;32289;42.688;23.330;2023-02-28T07:21:05;6.40;99.90
46562;DHT22;32289;42.688;23.330;2023-02-28T07:24:46;6.50;99.90
46562;DHT22;32289;42.688;23.330;2023-02-28T07:28:27;6.20;99.90
46562;DHT22;32289;42.688;23.330;2023-02-28T07:32:09;6.40;99.90
46562;DHT22;32289;42.688;23.330;2023-02-28T07:35:50;6.80;99.90
46562;DHT22;32289;42.688;23.330;2023-02-28T07:39:30;6.90;99.90
46562;DHT22;32289;42.688;23.330;2023-02-28T07:43:11;7.00;99.90
46562;DHT22;32289;42.688;23.330;2023-02-28T07:46:52;7.10;99.90
46562;DHT22;32289;42.688;23.330;2023-02-28T07:50:33;7.40;99.90
46562;DHT22;32289;42.688;23.330;2023-02-28T07:54:15;7.00;99.90
46562;DHT22;32289;42.688;23.330;2023-02-28T07:57:57;7.30;99.90
46562;DHT22;32289;42.688;23.330;2023-02-28T08:01:38;7.10;99.90
46562;DHT22;32289;42.688;23.330;2023-02-28T08:05:19;7.20;99.90
46562;DHT22;32289;42.688;23.330;2023-02-28T08:08:59;7.50;99.90
46562;DHT22;32289;42.688;23.330;2023-02-28T08:12:40;7.40;99.90
46562;DHT22;32289;42.688;23.330;2023-02-28T08:16:21;7.70;99.90
46562;DHT22;32289;42.688;23.330;2023-02-28T08:20:03;8.00;99.90
46562;DHT22;32289;42.688;23.330;2023-02-28T08:23:47;7.90;99.90
46562;DHT22;32289;42.688;23.330;2023-02-28T08:27:28;7.90;99.90
46562;DHT22;32289;42.688;23.330;2023-02-28T08:31:11;7.90;99.90
46562;DHT22;32289;42.688;23.330;2023-02-28T08:34:52;8.30;99.90
46562;DHT22;32289;42.688;23.330;2023-02-28T08:38:33;8.50;99.90
46562;DHT22;32289;42.688;23.330;2023-02-28T08:42:13;8.80;99.90
46562;DHT22;32289;42.688;23.330;2023-02-28T08:45:57;9.10;99.90
46562;DHT22;32289;42.688;23.330;2023-02-28T08:49:38;8.90;99.90
46562;DHT22;32289;42.688;23.330;2023-02-28T08:53:19;9.10;99.90
46562;DHT22;32289;42.688;23.330;2023-02-28T08:57:00;9.40;99.90
46562;DHT22;32289;42.688;23.330;2023-02-28T09:00:40;9.40;99.90
46562;DHT22;32289;42.688;23.330;2023-02-28T09:04:21;9.40;99.90
46562;DHT22;32289;42.688;23.330;2023-02-28T09:08:02;9.80;99.90
46562;DHT22;32289;42.688;23.330;2023-02-28T09:11:43;9.90;99.90
46562;DHT22;32289;42.688;23.330;2023-02-28T09:15:24;9.80;99.90
46562;DHT22;32289;42.688;23.330;2023-02-28T09:19:05;9.90;99.90
46562;DHT22;32289;42.688;23.330;2023-02-28T09:22:45;10.10;99.90
46562;DHT22;32289;42.688;23.330;2023-02-28T09:26:27;9.50;99.90
46562;DHT22;32289;42.688;23.330;2023-02-28T09:30:08;9.40;99.90
46562;DHT22;32289;42.688;23.330;2023-02-28T09:33:50;9.50;99.90
46562;DHT22;32289;42.688;23.330;2023-02-28T09:37:32;9.80;99.90
46562;DHT22;32289;42.688;23.330;2023-02-28T09:41:16;10.50;99.90
46562;DHT22;32289;42.688;23.330;2023-02-28T09:44:59;9.90;99.90
46562;DHT22;32289;42.688;23.330;2023-02-28T09:48:44;10.30;99.90
46562;DHT22;32289;42.688;23.330;2023-02-28T09:52:30;10.40;99.90
46562;DHT22;32289;42.688;23.330;2023-02-28T09:56:23;10.60;99.90
46562;DHT22;32289;42.688;23.330;2023-02-28T10:00:29;9.90;99.90
46562;DHT22;32289;42.688;23.330;2023-02-28T10:04:40;10.00;99.90
46562;DHT22;32289;42.688;23.330;2023-02-28T10:08:29;10.40;99.90
46562;DHT22;32289;42.688;23.330;2023-02-28T10:12:12;10.30;99.90
46562;DHT22;32289;42.688;23.330;2023-02-28T10:16:02;10.90;99.90
46562;DHT22;32289;42.688;23.330;2023-02-28T10:20:01;11.00;99.90
46562;DHT22;32289;42.688;23.330;2023-02-28T10:23:48;10.80;99.90
46562;DHT22;32289;42.688;23.330;2023-02-28T10:27:31;11.20;99.90
46562;DHT22;32289;42.688;23.330;2023-02-28T10:31:18;10.70;99.90
46562;DHT22;32289;42.688;23.330;2023-02-28T10:38:50;11.00;99.90
46562;DHT22;32289;42.688;23.330;2023-02-28T10:42:31;11.20;99.90
46562;DHT22;32289;42.688;23.330;2023-02-28T10:46:17;11.80;99.90
46562;DHT22;32289;42.688;23.330;2023-02-28T10:50:06;11.80;99.90
46562;DHT22;32289;42.688;23.330;2023-02-28T10:53:51;12.30;99.90
46562;DHT22;32289;42.688;23.330;2023-02-28T10:57:38;11.80;99.90
46562;DHT22;32289;42.688;23.330;2023-02-28T11:05:34;12.40;99.90
46562;DHT22;32289;42.688;23.330;2023-02-28T11:09:24;13.20;99.90
46562;DHT22;32289;42.688;23.330;2023-02-28T11:13:17;12.20;99.90
46562;DHT22;32289;42.688;23.330;2023-02-28T11:17:11;12.60;99.90
46562;DHT22;32289;42.688;23.330;2023-02-28T11:20:56;12.40;99.90
46562;DHT22;32289;42.688;23.330;2023-02-28T11:24:43;11.60;99.90
46562;DHT22;32289;42.688;23.330;2023-02-28T11:28:27;11.90;99.90
46562;DHT22;32289;42.688;23.330;2023-02-28T11:32:12;11.60;99.90
46562;DHT22;32289;42.688;23.330;2023-02-28T11:36:00;12.50;99.90
46562;DHT22;32289;42.688;23.330;2023-02-28T11:39:43;12.10;99.90
46562;DHT22;32289;42.688;23.330;2023-02-28T11:47:48;11.20;99.90
46562;DHT22;32289;42.688;23.330;2023-02-28T11:51:51;11.30;99.90
46562;DHT22;32289;42.688;23.330;2023-02-28T11:56:02;11.50;99.90
46562;DHT22;32289;42.688;23.330;2023-02-28T12:27:51;12.30;99.90
46562;DHT22;32289;42.688;23.330;2023-02-28T12:31:40;12.00;99.90
46562;DHT22;32289;42.688;23.330;2023-02-28T12:35:26;11.80;99.90
46562;DHT22;32289;42.688;23.330;2023-02-28T12:39:26;11.70;99.90
46562;DHT22;32289;42.688;23.330;2023-02-28T12:43:11;11.50;99.90
46562;DHT22;32289;42.688;23.330;2023-02-28T12:46:56;11.40;99.90
46562;DHT22;32289;42.688;23.330;2023-02-28T12:50:38;11.00;99.90
46562;DHT22;32289;42.688;23.330;2023-02-28T13:09:55;11.60;99.90
46562;DHT22;32289;42.688;23.330;2023-02-28T13:13:36;11.50;99.90
46562;DHT22;32289;42.688;23.330;2023-02-28T13:17:19;11.40;99.90
46562;DHT22;32289;42.688;23.330;2023-02-28T13:21:00;11.30;99.90
46562;DHT22;32289;42.688;23.330;2023-02-28T13:24:51;11.30;99.90
46562;DHT22;32289;42.688;23.330;2023-02-28T13:33:31;11.70;99.90
46562;DHT22;32289;42.688;23.330;2023-02-28T13:49:37;11.30;99.90
46562;DHT22;32289;42.688;23.330;2023-02-28T13:54:02;11.50;99.90
46562;DHT22;32289;42.688;23.330;2023-02-28T14:06:23;11.40;99.90
46562;DHT22;32289;42.688;23.330;2023-02-28T14:10:07;11.20;99.90
46562;DHT22;32289;42.688;23.330;2023-02-28T14:13:49;10.90;99.90
46562;DHT22;32289;42.688;23.330;2023-02-28T14:17:30;11.00;99.90
46562;DHT22;32289;42.688;23.330;2023-02-28T14:21:24;10.70;99.90
46562;DHT22;32289;42.688;23.330;2023-02-28T14:25:23;10.50;99.90
46562;DHT22;32289;42.688;23.330;2023-02-28T14:33:35;10.40;99.90
46562;DHT22;32289;42.688;23.330;2023-02-28T14:37:29;10.40;99.90
46562;DHT22;32289;42.688;23.330;2023-02-28T14:41:30;10.40;99.90
46562;DHT22;32289;42.688;23.330;2023-02-28T14:45:20;10.30;99.90
46562;DHT22;32289;42.688;23.330;2023-02-28T14:49:01;10.20;99.90
46562;DHT22;32289;42.688;23.330;2023-02-28T14:52:43;10.40;99.90
46562;DHT22;32289;42.688;23.330;2023-02-28T14:56:32;10.40;99.90
46562;DHT22;32289;42.688;23.330;2023-02-28T15:00:26;10.20;99.90
46562;DHT22;32289;42.688;23.330;2023-02-28T15:04:26;10.40;99.90
46562;DHT22;32289;42.688;23.330;2023-02-28T15:08:17;10.30;99.90
46562;DHT22;32289;42.688;23.330;2023-02-28T15:11:59;9.90;99.90
46562;DHT22;32289;42.688;23.330;2023-02-28T15:16:15;9.90;99.90
46562;DHT22;32289;42.688;23.330;2023-02-28T15:19:50;9.70;99.90
46562;DHT22;32289;42.688;23.330;2023-02-28T15:23:34;9.80;99.90
46562;DHT22;32289;42.688;23.330;2023-02-28T15:27:23;9.80;99.90
46562;DHT22;32289;42.688;23.330;2023-02-28T15:31:23;9.70;99.90
46562;DHT22;32289;42.688;23.330;2023-02-28T15:39:26;9.40;99.90
46562;DHT22;32289;42.688;23.330;2023-02-28T15:43:14;9.30;99.90
46562;DHT22;32289;42.688;23.330;2023-02-28T15:47:05;9.40;99.90
46562;DHT22;32289;42.688;23.330;2023-02-28T15:51:00;9.50;99.90
46562;DHT22;32289;42.688;23.330;2023-02-28T15:54:43;9.30;99.90
46562;DHT22;32289;42.688;23.330;2023-02-28T15:58:25;9.20;99.90
46562;DHT22;32289;42.688;23.330;2023-02-28T16:06:12;9.10;99.90
46562;DHT22;32289;42.688;23.330;2023-02-28T16:10:01;8.90;99.90
46562;DHT22;32289;42.688;23.330;2023-02-28T16:13:42;8.60;99.90
46562;DHT22;32289;42.688;23.330;2023-02-28T16:17:25;8.40;99.90
46562;DHT22;32289;42.688;23.330;2023-02-28T16:21:08;8.30;99.90
46562;DHT22;32289;42.688;23.330;2023-02-28T16:24:48;8.30;99.90
46562;DHT22;32289;42.688;23.330;2023-02-28T16:28:35;8.10;99.90
46562;DHT22;32289;42.688;23.330;2023-02-28T16:32:17;8.00;99.90
46562;DHT22;32289;42.688;23.330;2023-02-28T16:35:58;7.90;99.90
46562;DHT22;32289;42.688;23.330;2023-02-28T16:39:39;7.90;99.90
46562;DHT22;32289;42.688;23.330;2023-02-28T16:43:25;7.80;99.90
46562;DHT22;32289;42.688;23.330;2023-02-28T16:47:08;7.90;99.90
46562;DHT22;32289;42.688;23.330;2023-02-28T16:50:49;7.70;99.90
46562;DHT22;32289;42.688;23.330;2023-02-28T16:54:30;7.70;99.90
46562;DHT22;32289;42.688;23.330;2023-02-28T16:58:15;7.80;99.90
46562;DHT22;32289;42.688;23.330;2023-02-28T17:01:58;7.60;99.90
46562;DHT22;32289;42.688;23.330;2023-02-28T17:05:39;7.70;99.90
46562;DHT22;32289;42.688;23.330;2023-02-28T17:09:22;7.60;99.90
46562;DHT22;32289;42.688;23.330;2023-02-28T17:13:03;7.40;99.90
46562;DHT22;32289;42.688;23.330;2023-02-28T17:16:44;7.30;99.90
46562;DHT22;32289;42.688;23.330;2023-02-28T17:20:24;7.30;99.90
46562;DHT22;32289;42.688;23.330;2023-02-28T17:24:08;7.30;99.90
46562;DHT22;32289;42.688;23.330;2023-02-28T17:27:49;7.20;99.90
46562;DHT22;32289;42.688;23.330;2023-02-28T17:31:31;7.20;99.90
46562;DHT22;32289;42.688;23.330;2023-02-28T17:35:13;7.20;99.90
46562;DHT22;32289;42.688;23.330;2023-02-28T17:38:54;7.00;99.90
46562;DHT22;32289;42.688;23.330;2023-02-28T17:42:38;7.00;99.90
46562;DHT22;32289;42.688;23.330;2023-02-28T17:46:23;7.00;99.90
46562;DHT22;32289;42.688;23.330;2023-02-28T17:50:05;6.80;99.90
46562;DHT22;32289;42.688;23.330;2023-02-28T17:53:46;6.80;99.90
46562;DHT22;32289;42.688;23.330;2023-02-28T17:57:27;6.70;99.90
46562;DHT22;32289;42.688;23.330;2023-02-28T18:01:07;6.70;99.90
46562;DHT22;32289;42.688;23.330;2023-02-28T18:04:48;6.60;99.90
46562;DHT22;32289;42.688;23.330;2023-02-28T18:08:29;6.70;99.90
46562;DHT22;32289;42.688;23.330;2023-02-28T18:12:11;6.60;99.90
46562;DHT22;32289;42.688;23.330;2023-02-28T18:15:52;6.60;99.90
46562;DHT22;32289;42.688;23.330;2023-02-28T18:19:32;6.60;99.90
46562;DHT22;32289;42.688;23.330;2023-02-28T18:23:13;6.60;99.90
46562;DHT22;32289;42.688;23.330;2023-02-28T18:26:54;6.60;99.90
46562;DHT22;32289;42.688;23.330;2023-02-28T18:30:36;6.60;99.90
46562;DHT22;32289;42.688;23.330;2023-02-28T18:34:17;6.60;99.90
46562;DHT22;32289;42.688;23.330;2023-02-28T18:37:58;6.60;99.90
46562;DHT22;32289;42.688;23.330;2023-02-28T18:41:38;6.50;99.90
46562;DHT22;32289;42.688;23.330;2023-02-28T18:45:19;6.60;99.90
46562;DHT22;32289;42.688;23.330;2023-02-28T18:49:00;6.50;99.90
46562;DHT22;32289;42.688;23.330;2023-02-28T18:52:41;6.50;99.90
46562;DHT22;32289;42.688;23.330;2023-02-28T18:56:23;6.50;99.90
46562;DHT22;32289;42.688;23.330;2023-02-28T19:00:04;6.50;99.90
46562;DHT22;32289;42.688;23.330;2023-02-28T19:03:45;6.50;99.90
46562;DHT22;32289;42.688;23.330;2023-02-28T19:07:26;6.50;99.90
46562;DHT22;32289;42.688;23.330;2023-02-28T19:11:09;6.60;99.90
46562;DHT22;32289;42.688;23.330;2023-02-28T19:14:50;6.60;99.90
46562;DHT22;32289;42.688;23.330;2023-02-28T19:18:31;6.50;99.90
46562;DHT22;32289;42.688;23.330;2023-02-28T19:22:12;6.50;99.90
46562;DHT22;32289;42.688;23.330;2023-02-28T19:25:53;6.50;99.90
46562;DHT22;32289;42.688;23.330;2023-02-28T19:29:36;6.40;99.90
46562;DHT22;32289;42.688;23.330;2023-02-28T19:33:16;6.40;99.90
46562;DHT22;32289;42.688;23.330;2023-02-28T19:36:57;6.40;99.90
46562;DHT22;32289;42.688;23.330;2023-02-28T19:40:38;6.40;99.90
46562;DHT22;32289;42.688;23.330;2023-02-28T19:44:18;6.40;99.90
46562;DHT22;32289;42.688;23.330;2023-02-28T19:47:59;6.40;99.90
46562;DHT22;32289;42.688;23.330;2023-02-28T19:51:40;6.30;99.90
46562;DHT22;32289;42.688;23.330;2023-02-28T19:55:22;6.40;99.90
46562;DHT22;32289;42.688;23.330;2023-02-28T19:59:03;6.40;99.90
46562;DHT22;32289;42.688;23.330;2023-02-28T20:02:44;6.30;99.90
46562;DHT22;32289;42.688;23.330;2023-02-28T20:06:25;6.30;99.90
46562;DHT22;32289;42.688;23.330;2023-02-28T20:10:06;6.30;99.90
46562;DHT22;32289;42.688;23.330;2023-02-28T20:13:47;6.30;99.90
46562;DHT22;32289;42.688;23.330;2023-02-28T20:17:27;6.30;99.90
46562;DHT22;32289;42.688;23.330;2023-02-28T20:21:11;6.30;99.90
46562;DHT22;32289;42.688;23.330;2023-02-28T20:24:52;6.40;99.90
46562;DHT22;32289;42.688;23.330;2023-02-28T20:28:33;6.30;99.90
46562;DHT22;32289;42.688;23.330;2023-02-28T20:32:14;6.40;99.90
46562;DHT22;32289;42.688;23.330;2023-02-28T20:35:59;6.30;99.90
46562;DHT22;32289;42.688;23.330;2023-02-28T20:39:39;6.40;99.90
46562;DHT22;32289;42.688;23.330;2023-02-28T20:43:21;6.40;99.90
46562;DHT22;32289;42.688;23.330;2023-02-28T20:47:03;6.40;99.90
46562;DHT22;32289;42.688;23.330;2023-02-28T20:50:48;6.40;99.90
46562;DHT22;32289;42.688;23.330;2023-02-28T20:54:29;6.40;99.90
46562;DHT22;32289;42.688;23.330;2023-02-28T20:58:10;6.50;99.90
46562;DHT22;32289;42.688;23.330;2023-02-28T21:01:51;6.40;99.90
46562;DHT22;32289;42.688;23.330;2023-02-28T21:05:32;6.50;99.90
46562;DHT22;32289;42.688;23.330;2023-02-28T21:09:14;6.40;99.90
46562;DHT22;32289;42.688;23.330;2023-02-28T21:12:54;6.40;99.90
46562;DHT22;32289;42.688;23.330;2023-02-28T21:16:37;6.40;99.90
46562;DHT22;32289;42.688;23.330;2023-02-28T21:20:18;6.40;99.90
46562;DHT22;32289;42.688;23.330;2023-02-28T21:24:01;6.40;99.90
46562;DHT22;32289;42.688;23.330;2023-02-28T21:27:41;6.40;99.90
46562;DHT22;32289;42.688;23.330;2023-02-28T21:31:24;6.40;99.90
46562;DHT22;32289;42.688;23.330;2023-02-28T21:35:05;6.40;99.90
46562;DHT22;32289;42.688;23.330;2023-02-28T21:38:48;6.40;99.90
46562;DHT22;32289;42.688;23.330;2023-02-28T21:42:30;6.50;99.90
46562;DHT22;32289;42.688;23.330;2023-02-28T21:46:13;6.50;99.90
46562;DHT22;32289;42.688;23.330;2023-02-28T21:49:54;6.60;99.90
46562;DHT22;32289;42.688;23.330;2023-02-28T21:53:36;6.60;99.90
46562;DHT22;32289;42.688;23.330;2023-02-28T21:57:17;6.40;99.90
46562;DHT22;32289;42.688;23.330;2023-02-28T22:01:09;6.30;99.90
46562;DHT22;32289;42.688;23.330;2023-02-28T22:04:50;6.20;99.90
46562;DHT22;32289;42.688;23.330;2023-02-28T22:08:31;6.20;99.90
46562;DHT22;32289;42.688;23.330;2023-02-28T22:12:12;6.20;99.90
46562;DHT22;32289;42.688;23.330;2023-02-28T22:15:53;6.30;99.90
46562;DHT22;32289;42.688;23.330;2023-02-28T22:19:33;6.30;99.90
46562;DHT22;32289;42.688;23.330;2023-02-28T22:23:15;6.30;99.90
46562;DHT22;32289;42.688;23.330;2023-02-28T22:26:56;6.10;99.90
46562;DHT22;32289;42.688;23.330;2023-02-28T22:30:36;6.00;99.90
46562;DHT22;32289;42.688;23.330;2023-02-28T22:34:17;6.00;99.90
46562;DHT22;32289;42.688;23.330;2023-02-28T22:37:57;5.90;99.90
46562;DHT22;32289;42.688;23.330;2023-02-28T22:41:38;5.90;99.90
46562;DHT22;32289;42.688;23.330;2023-02-28T22:45:19;5.90;99.90
46562;DHT22;32289;42.688;23.330;2023-02-28T22:49:02;5.90;99.90
46562;DHT22;32289;42.688;23.330;2023-02-28T22:52:43;5.90;99.90
46562;DHT22;32289;42.688;23.330;2023-02-28T22:56:25;5.80;99.90
46562;DHT22;32289;42.688;23.330;2023-02-28T23:00:08;5.80;99.90
46562;DHT22;32289;42.688;23.330;2023-02-28T23:03:54;5.90;99.90
46562;DHT22;32289;42.688;23.330;2023-02-28T23:07:35;5.90;99.90
46562;DHT22;32289;42.688;23.330;2023-02-28T23:11:20;5.90;99.90
46562;DHT22;32289;42.688;23.330;2023-02-28T23:15:00;5.70;99.90
46562;DHT22;32289;42.688;23.330;2023-02-28T23:18:41;5.80;99.90
46562;DHT22;32289;42.688;23.330;2023-02-28T23:22:22;5.80;99.90
46562;DHT22;32289;42.688;23.330;2023-02-28T23:26:06;5.70;99.90
46562;DHT22;32289;42.688;23.330;2023-02-28T23:29:47;5.70;99.90
46562;DHT22;32289;42.688;23.330;2023-02-28T23:33:28;5.70;99.90
46562;DHT22;32289;42.688;23.330;2023-02-28T23:37:09;5.50;99.90
46562;DHT22;32289;42.688;23.330;2023-02-28T23:40:49;5.50;99.90
46562;DHT22;32289;42.688;23.330;2023-02-28T23:44:30;5.50;99.90
46562;DHT22;32289;42.688;23.330;2023-02-28T23:48:11;5.40;99.90
46562;DHT22;32289;42.688;23.330;2023-02-28T23:51:52;5.50;99.90
46562;DHT22;32289;42.688;23.330;2023-02-28T23:55:33;5.40;99.90
46562;DHT22;32289;42.688;23.330;2023-02-28T23:59:14;5.40;99.90
